Time;durP1;ratioP1;P1;durP2;ratioP2;P2;SDS_P1;SDS_P2;PMS_P1;PMS_P2;Temp;Humidity;BMP_temperature;BMP_pressure;BME280_temperature;BME280_humidity;BME280_pressure;Samples;Min_cycle;Max_cycle;Signal;HPM_P1;HPM_P2
2022/06/05 00:00:42;;;;;;;6.97;6.27;;;19.80;99.90;;;;;;5023330;28;20281;-77
2022/06/05 00:03:18;;;;;;;8.77;6.93;;;19.80;99.90;;;;;;5023860;28;20434;-78
2022/06/05 00:06:19;;;;;;;10.73;6.80;;;19.70;99.90;;;;;;5023585;28;20419;-78
2022/06/05 00:09:05;;;;;;;8.20;6.60;;;19.70;99.90;;;;;;5023687;28;20488;-77
2022/06/05 00:11:47;;;;;;;8.87;6.60;;;19.60;99.90;;;;;;5024260;28;20475;-78
2022/06/05 00:14:13;;;;;;;7.80;6.13;;;19.60;99.90;;;;;;5024185;28;20439;-77
2022/06/05 00:16:39;;;;;;;6.60;5.73;;;19.60;99.90;;;;;;5024271;28;20416;-78
2022/06/05 00:19:05;;;;;;;7.97;6.17;;;19.60;99.90;;;;;;5023659;28;20459;-78
2022/06/05 00:21:30;;;;;;;7.60;6.37;;;19.60;99.90;;;;;;5024251;28;20193;-78
2022/06/05 00:23:56;;;;;;;6.67;5.70;;;19.60;99.90;;;;;;5006829;28;20192;-78
2022/06/05 00:26:36;;;;;;;8.70;6.83;;;19.60;99.90;;;;;;5024296;28;20652;-77
2022/06/05 00:29:23;;;;;;;6.30;5.40;;;19.60;99.90;;;;;;5024663;28;20200;-78
2022/06/05 00:32:09;;;;;;;7.07;6.10;;;19.60;99.90;;;;;;5024734;28;20464;-77
2022/06/05 00:34:35;;;;;;;7.27;6.57;;;19.60;99.90;;;;;;5024860;28;20419;-77
2022/06/05 00:37:18;;;;;;;5.97;5.40;;;19.60;99.90;;;;;;5023834;28;20575;-78
2022/06/05 00:40:18;;;;;;;8.50;6.10;;;19.60;99.90;;;;;;5024387;28;20197;-78
2022/06/05 00:42:46;;;;;;;6.50;5.90;;;19.50;99.90;;;;;;5025027;28;20923;-77
2022/06/05 00:45:13;;;;;;;7.10;5.47;;;19.50;99.90;;;;;;5023498;28;20416;-78
2022/06/05 00:47:41;;;;;;;6.37;5.57;;;19.50;99.90;;;;;;5024146;28;20411;-79
2022/06/05 00:50:27;;;;;;;5.50;4.67;;;19.40;99.90;;;;;;5024741;28;20542;-78
2022/06/05 00:52:57;;;;;;;5.10;4.57;;;19.30;99.90;;;;;;5008767;28;20432;-78
2022/06/05 00:55:26;;;;;;;6.27;5.67;;;19.20;99.90;;;;;;5025377;28;20404;-77
2022/06/05 00:57:54;;;;;;;6.17;5.00;;;19.20;99.90;;;;;;5027226;28;20412;-78
2022/06/05 01:00:27;;;;;;;6.67;5.10;;;19.10;99.90;;;;;;5028541;28;20493;-77
2022/06/05 01:02:55;;;;;;;6.37;5.73;;;19.10;99.90;;;;;;5028901;28;20424;-78
2022/06/05 01:05:22;;;;;;;6.67;6.00;;;19.00;99.90;;;;;;5028809;28;20420;-77
2022/06/05 01:07:48;;;;;;;6.97;5.90;;;19.10;99.90;;;;;;5028600;28;20416;-77
2022/06/05 01:10:16;;;;;;;7.00;6.30;;;19.10;99.90;;;;;;5012181;28;20447;-77
2022/06/05 01:13:11;;;;;;;8.00;5.53;;;19.10;99.90;;;;;;5028844;28;20482;-77
2022/06/05 01:15:39;;;;;;;6.63;6.03;;;19.10;99.90;;;;;;5012246;28;20431;-77
2022/06/05 01:18:05;;;;;;;6.40;5.13;;;19.10;99.90;;;;;;5012379;28;20428;-77
2022/06/05 01:20:42;;;;;;;6.43;5.83;;;19.10;99.90;;;;;;5029664;28;20443;-77
2022/06/05 01:23:34;;;;;;;6.63;5.70;;;19.10;99.90;;;;;;5029968;28;20181;-77
2022/06/05 01:26:15;;;;;;;6.40;5.70;;;19.10;99.90;;;;;;5029536;28;20436;-78
2022/06/05 01:28:56;;;;;;;6.40;5.70;;;19.00;99.90;;;;;;5029529;28;20424;-78
2022/06/05 01:31:32;;;;;;;5.73;5.13;;;19.00;99.90;;;;;;5030276;28;20526;-77
2022/06/05 01:34:19;;;;;;;7.30;5.97;;;19.00;99.90;;;;;;5029538;28;20470;-78
2022/06/05 01:37:11;;;;;;;7.17;5.90;;;19.00;99.90;;;;;;5030141;28;20416;-77
2022/06/05 01:39:46;;;;;;;6.87;5.77;;;19.00;99.90;;;;;;5015325;28;20463;-77
2022/06/05 01:42:35;;;;;;;6.90;5.50;;;19.00;99.90;;;;;;5013698;28;20423;-78
2022/06/05 01:45:20;;;;;;;6.80;5.67;;;19.00;99.90;;;;;;5030861;28;20423;-77
2022/06/05 01:47:53;;;;;;;6.60;5.70;;;19.00;99.90;;;;;;5030204;28;20419;-78
2022/06/05 01:50:38;;;;;;;6.27;5.67;;;19.00;99.90;;;;;;5029888;28;20535;-77
2022/06/05 01:53:29;;;;;;;6.90;6.10;;;19.00;99.90;;;;;;5030125;28;20408;-77
2022/06/05 01:56:01;;;;;;;7.23;6.23;;;18.90;99.90;;;;;;5030112;28;20412;-77
2022/06/05 01:58:34;;;;;;;6.93;6.30;;;18.90;99.90;;;;;;5011468;28;20463;-77
2022/06/05 02:01:03;;;;;;;8.43;5.83;;;18.90;99.90;;;;;;5011081;28;20431;-77
2022/06/05 02:03:36;;;;;;;6.53;5.70;;;18.90;99.90;;;;;;5027955;28;20420;-76
2022/06/05 02:06:32;;;;;;;8.10;5.70;;;18.90;99.90;;;;;;5010911;28;20935;-77
2022/06/05 02:09:05;;;;;;;5.83;5.23;;;18.90;99.90;;;;;;5025031;28;20468;-77
2022/06/05 02:11:32;;;;;;;6.50;5.80;;;19.00;99.90;;;;;;5033348;28;20803;-77
2022/06/05 02:14:07;;;;;;;7.97;6.63;;;19.00;99.90;;;;;;5033626;28;20500;-77
2022/06/05 02:16:36;;;;;;;7.17;6.47;;;19.00;99.90;;;;;;5033351;28;20420;-77
2022/06/05 02:19:04;;;;;;;7.40;6.17;;;19.00;99.90;;;;;;5033967;28;20423;-77
2022/06/05 02:21:32;;;;;;;6.80;6.07;;;19.00;99.90;;;;;;5033493;28;20466;-77
2022/06/05 02:23:58;;;;;;;6.10;5.50;;;19.00;99.90;;;;;;5032320;28;20427;-77
2022/06/05 02:26:25;;;;;;;7.30;6.57;;;19.00;99.90;;;;;;5033009;28;20491;-77
2022/06/05 02:28:51;;;;;;;5.90;5.33;;;19.00;99.90;;;;;;5031372;28;20181;-77
2022/06/05 02:31:23;;;;;;;6.93;6.20;;;19.00;99.90;;;;;;5031921;28;20467;-77
2022/06/05 02:34:00;;;;;;;5.93;5.40;;;19.00;99.90;;;;;;5032988;28;20181;-77
2022/06/05 02:36:37;;;;;;;6.53;5.70;;;19.00;99.90;;;;;;5032067;28;20434;-77
2022/06/05 02:39:15;;;;;;;6.20;5.60;;;19.00;99.90;;;;;;5030296;28;20497;-77
2022/06/05 02:41:43;;;;;;;6.93;6.23;;;19.00;99.90;;;;;;5029131;28;20446;-78
2022/06/05 02:44:34;;;;;;;5.90;5.40;;;19.00;99.90;;;;;;5029488;28;20420;-78
2022/06/05 02:47:21;;;;;;;6.00;5.50;;;19.00;99.90;;;;;;5028857;28;20451;-76
2022/06/05 02:50:04;;;;;;;6.00;5.40;;;19.00;99.90;;;;;;5030211;28;20482;-77
2022/06/05 02:52:31;;;;;;;5.80;5.20;;;19.10;99.90;;;;;;5030915;28;20419;-77
2022/06/05 02:55:04;;;;;;;7.40;5.67;;;19.10;99.90;;;;;;5029854;28;20400;-76
2022/06/05 02:57:30;;;;;;;6.27;5.67;;;19.00;99.90;;;;;;5029889;28;20870;-76
2022/06/05 02:59:56;;;;;;;5.90;5.30;;;19.10;99.90;;;;;;5030244;28;20478;-78
2022/06/05 03:05:06;;;;;;;6.33;5.73;;;19.10;99.90;;;;;;5028619;28;20640;-77
2022/06/05 03:07:32;;;;;;;7.03;5.07;;;19.10;99.90;;;;;;5029462;28;20415;-76
2022/06/05 03:09:57;;;;;;;6.17;5.03;;;19.10;99.90;;;;;;5012549;28;20444;-77
2022/06/05 03:12:23;;;;;;;9.10;5.20;;;19.20;99.90;;;;;;5030027;28;20252;-76
2022/06/05 03:14:49;;;;;;;6.10;5.03;;;19.20;99.90;;;;;;5029523;28;20207;-77
2022/06/05 03:17:15;;;;;;;5.10;4.60;;;19.20;99.90;;;;;;5029571;28;20227;-76
2022/06/05 03:19:41;;;;;;;6.50;5.00;;;19.30;99.90;;;;;;5029324;28;20204;-77
2022/06/05 03:22:07;;;;;;;5.83;4.50;;;19.30;99.90;;;;;;5029337;28;20200;-77
2022/06/05 03:24:33;;;;;;;6.20;5.23;;;19.40;99.90;;;;;;5030837;28;20443;-77
2022/06/05 03:26:58;;;;;;;6.00;5.40;;;19.40;99.90;;;;;;5030672;28;20247;-76
2022/06/05 03:29:24;;;;;;;5.67;4.90;;;19.40;99.90;;;;;;5030312;28;20506;-76
2022/06/05 03:31:50;;;;;;;5.23;4.73;;;19.50;99.90;;;;;;5030363;28;20215;-77
2022/06/05 03:34:17;;;;;;;5.57;4.77;;;19.50;99.90;;;;;;5029704;28;20233;-77
2022/06/05 03:36:43;;;;;;;7.10;5.87;;;19.50;99.90;;;;;;5027049;28;20172;-77
2022/06/05 03:39:09;;;;;;;6.70;5.20;;;19.50;99.90;;;;;;5030066;28;20451;-77
2022/06/05 03:41:36;;;;;;;5.30;4.80;;;19.60;99.90;;;;;;5030178;28;20416;-76
2022/06/05 03:44:02;;;;;;;5.73;5.20;;;19.60;99.90;;;;;;5031794;28;20411;-77
2022/06/05 03:46:28;;;;;;;5.53;5.03;;;19.60;99.90;;;;;;5031704;28;20423;-76
2022/06/05 03:48:53;;;;;;;5.87;5.27;;;19.60;99.90;;;;;;5031179;28;20467;-77
2022/06/05 03:51:22;;;;;;;5.50;4.70;;;19.70;99.90;;;;;;5041027;22;20256;-77
2022/06/05 03:53:49;;;;;;;5.17;4.67;;;19.80;99.90;;;;;;5014006;28;20180;-77
2022/06/05 03:56:17;;;;;;;4.67;4.27;;;19.80;99.90;;;;;;5013345;28;20408;-77
2022/06/05 03:58:44;;;;;;;4.73;4.23;;;19.80;99.90;;;;;;5013650;28;20404;-76
2022/06/05 04:01:11;;;;;;;5.63;5.07;;;19.90;99.90;;;;;;5013762;28;20486;-76
2022/06/05 04:03:37;;;;;;;5.27;4.70;;;19.90;99.90;;;;;;5013552;28;20511;-75
2022/06/05 04:06:12;;;;;;;6.20;4.87;;;19.90;99.90;;;;;;5013387;28;20411;-77
2022/06/05 04:08:39;;;;;;;5.67;4.57;;;19.90;99.90;;;;;;5014037;28;20467;-76
2022/06/05 04:11:13;;;;;;;6.10;5.20;;;20.00;99.90;;;;;;5012981;28;21042;-77
2022/06/05 04:13:39;;;;;;;5.20;4.70;;;20.00;99.90;;;;;;5013361;28;20419;-76
2022/06/05 04:16:15;;;;;;;5.70;4.90;;;20.10;99.90;;;;;;5013078;28;20922;-77
2022/06/05 04:18:41;;;;;;;5.77;5.17;;;20.10;99.90;;;;;;5012908;28;21116;-76
2022/06/05 04:21:28;;;;;;;6.33;5.63;;;20.10;99.90;;;;;;5013299;28;20431;-76
2022/06/05 04:23:54;;;;;;;5.90;5.30;;;20.10;99.90;;;;;;5013199;28;20439;-77
2022/06/05 04:26:23;;;;;;;8.70;4.87;;;20.10;99.90;;;;;;4994844;28;20420;-76
2022/06/05 04:28:50;;;;;;;6.53;5.30;;;20.10;99.90;;;;;;4995156;28;20424;-76
2022/06/05 04:31:22;;;;;;;6.10;4.80;;;20.10;99.90;;;;;;5012943;28;20837;-77
2022/06/05 04:33:49;;;;;;;7.30;4.93;;;20.20;99.90;;;;;;5016628;28;20403;-77
2022/06/05 04:36:15;;;;;;;6.23;5.13;;;20.20;99.90;;;;;;5016546;28;20781;-76
2022/06/05 04:38:41;;;;;;;6.97;4.67;;;20.20;99.90;;;;;;5016420;28;20407;-77
2022/06/05 04:41:06;;;;;;;5.73;5.10;;;20.20;99.90;;;;;;5016827;28;20446;-76
2022/06/05 04:43:33;;;;;;;5.37;4.87;;;20.20;99.90;;;;;;5016461;28;20539;-75
2022/06/05 04:45:58;;;;;;;5.37;4.87;;;20.20;99.90;;;;;;4998601;28;20205;-76
2022/06/05 04:48:24;;;;;;;5.70;4.60;;;20.30;99.90;;;;;;5016841;28;20453;-76
2022/06/05 04:50:49;;;;;;;5.20;4.70;;;20.30;99.90;;;;;;5016444;28;20280;-76
2022/06/05 04:53:15;;;;;;;5.90;5.40;;;20.30;99.90;;;;;;5016562;28;20204;-75
2022/06/05 04:55:40;;;;;;;6.40;5.80;;;20.40;99.90;;;;;;4998331;28;20641;-76
2022/06/05 04:58:06;;;;;;;5.40;4.90;;;20.50;99.90;;;;;;5016231;28;20264;-76
2022/06/05 05:00:32;;;;;;;6.50;5.90;;;20.50;99.90;;;;;;4998489;28;20216;-77
2022/06/05 05:02:57;;;;;;;6.80;5.63;;;20.60;99.90;;;;;;5016449;28;20217;-76
2022/06/05 05:05:23;;;;;;;5.97;5.20;;;20.60;99.90;;;;;;4998554;28;20316;-76
2022/06/05 05:07:49;;;;;;;5.00;4.50;;;20.60;99.90;;;;;;5016550;28;20268;-77
2022/06/05 05:10:14;;;;;;;6.03;5.40;;;20.60;99.90;;;;;;5019529;28;20447;-76
2022/06/05 05:12:40;;;;;;;5.70;5.10;;;20.60;99.90;;;;;;5018072;28;20181;-77
2022/06/05 05:15:08;;;;;;;6.47;5.30;;;20.60;99.90;;;;;;5018481;28;20169;-74
2022/06/05 05:17:33;;;;;;;5.37;4.87;;;20.60;99.90;;;;;;5018623;28;20412;-77
2022/06/05 05:19:59;;;;;;;5.83;5.23;;;20.60;99.90;;;;;;5018633;28;20428;-76
2022/06/05 05:22:25;;;;;;;5.50;4.70;;;20.70;99.90;;;;;;5018471;28;20563;-75
2022/06/05 05:24:51;;;;;;;5.30;4.80;;;20.70;99.90;;;;;;5018323;28;20173;-76
2022/06/05 05:27:16;;;;;;;6.47;4.93;;;20.60;99.90;;;;;;5017222;28;20439;-76
2022/06/05 05:29:42;;;;;;;5.93;5.33;;;20.60;99.90;;;;;;5017735;28;20177;-77
2022/06/05 05:32:09;;;;;;;6.10;5.50;;;20.70;99.90;;;;;;5017594;28;20644;-76
2022/06/05 05:34:35;;;;;;;5.73;5.13;;;20.70;99.90;;;;;;5017653;28;20227;-77
2022/06/05 05:37:00;;;;;;;5.70;5.00;;;20.80;99.90;;;;;;5017817;28;20460;-77
2022/06/05 05:42:12;;;;;;;7.13;5.10;;;20.80;99.90;;;;;;5017960;28;20203;-76
2022/06/05 05:44:48;;;;;;;6.53;5.20;;;20.80;99.90;;;;;;4999617;28;20431;-77
2022/06/05 05:47:23;;;;;;;5.87;5.13;;;20.80;99.90;;;;;;5017391;28;20999;-76
2022/06/05 05:49:54;;;;;;;5.43;4.93;;;20.90;99.90;;;;;;5017066;28;20956;-76
2022/06/05 05:52:20;;;;;;;5.73;5.10;;;20.90;99.90;;;;;;5016540;28;20471;-76
2022/06/05 05:54:46;;;;;;;5.77;5.27;;;20.90;99.90;;;;;;5016824;28;20412;-77
2022/06/05 05:57:11;;;;;;;5.60;5.00;;;21.00;99.90;;;;;;5016330;28;20503;-77
2022/06/05 05:59:37;;;;;;;5.43;4.93;;;21.00;99.90;;;;;;5016905;28;20228;-76
2022/06/05 06:02:06;;;;;;;5.47;4.97;;;21.00;99.90;;;;;;5016937;28;20203;-76
2022/06/05 06:04:31;;;;;;;5.93;4.40;;;21.00;99.90;;;;;;5016091;28;20184;-76
2022/06/05 06:06:57;;;;;;;5.60;4.83;;;21.00;99.90;;;;;;5016183;28;20865;-76
2022/06/05 06:09:23;;;;;;;6.40;5.77;;;21.10;99.90;;;;;;5015979;28;20191;-76
2022/06/05 06:11:48;;;;;;;5.60;4.93;;;21.10;99.90;;;;;;5015878;28;20743;-77
2022/06/05 06:14:14;;;;;;;6.60;6.00;;;21.10;99.90;;;;;;5015083;28;20580;-76
2022/06/05 06:16:40;;;;;;;6.00;5.40;;;21.10;99.90;;;;;;5015808;28;20628;-76
2022/06/05 06:19:05;;;;;;;7.07;5.73;;;21.10;99.90;;;;;;4998087;28;20235;-78
2022/06/05 06:21:33;;;;;;;5.70;5.10;;;21.10;99.90;;;;;;5017652;28;20280;-77
2022/06/05 06:23:58;;;;;;;6.73;5.53;;;21.20;99.90;;;;;;5016599;28;20180;-77
2022/06/05 06:26:24;;;;;;;6.20;5.60;;;21.30;99.90;;;;;;5016607;28;20966;-77
2022/06/05 06:28:50;;;;;;;6.63;5.93;;;21.30;99.90;;;;;;5017406;28;20597;-78
2022/06/05 06:31:16;;;;;;;6.30;5.63;;;21.40;99.90;;;;;;5017025;28;20215;-76
2022/06/05 06:33:43;;;;;;;5.80;4.93;;;21.50;99.90;;;;;;4998660;28;20177;-78
2022/06/05 06:36:13;;;;;;;5.87;5.17;;;21.50;99.90;;;;;;4998529;28;20835;-76
2022/06/05 06:38:40;;;;;;;6.80;6.07;;;21.50;99.90;;;;;;5016929;28;20416;-77
2022/06/05 06:41:14;;;;;;;6.03;5.43;;;21.60;99.90;;;;;;5015647;28;21042;-77
2022/06/05 06:43:40;;;;;;;5.63;5.13;;;21.60;99.90;;;;;;5015943;28;20415;-77
2022/06/05 06:46:07;;;;;;;6.47;5.87;;;21.60;99.90;;;;;;5016137;28;20408;-76
2022/06/05 06:48:33;;;;;;;6.40;5.80;;;21.60;99.90;;;;;;5015632;28;20604;-77
2022/06/05 06:51:00;;;;;;;6.60;5.60;;;21.50;99.90;;;;;;4998500;28;20892;-77
2022/06/05 06:53:27;;;;;;;6.77;6.07;;;21.50;99.90;;;;;;4998460;28;20486;-76
2022/06/05 06:55:53;;;;;;;6.23;5.63;;;21.60;99.90;;;;;;5014665;28;20822;-77
2022/06/05 06:58:19;;;;;;;6.80;5.27;;;21.60;99.90;;;;;;5015864;28;20439;-77
2022/06/05 07:00:45;;;;;;;6.17;5.57;;;21.70;99.90;;;;;;5015407;28;20787;-76
2022/06/05 07:03:11;;;;;;;6.97;6.27;;;21.70;99.90;;;;;;5016680;28;20598;-78
2022/06/05 07:05:37;;;;;;;6.13;5.53;;;21.70;99.90;;;;;;5017924;28;20420;-78
2022/06/05 07:08:03;;;;;;;6.27;5.67;;;21.80;99.90;;;;;;5018940;28;20189;-78
2022/06/05 07:10:29;;;;;;;7.37;6.67;;;21.90;99.90;;;;;;5018765;28;20954;-78
2022/06/05 07:12:55;;;;;;;6.33;5.20;;;22.00;99.90;;;;;;5001256;28;20424;-78
2022/06/05 07:15:21;;;;;;;6.27;5.67;;;22.10;99.90;;;;;;5001288;28;20177;-78
2022/06/05 07:17:47;;;;;;;6.00;5.40;;;22.30;99.90;;;;;;5018455;28;20236;-78
2022/06/05 07:20:13;;;;;;;5.77;5.17;;;22.40;99.90;;;;;;5018044;28;20227;-78
2022/06/05 07:22:39;;;;;;;6.87;6.17;;;22.50;99.90;;;;;;5000635;28;20800;-78
2022/06/05 07:25:05;;;;;;;6.97;5.87;;;22.50;99.90;;;;;;5018709;28;20416;-78
2022/06/05 07:27:30;;;;;;;8.40;5.13;;;22.50;99.90;;;;;;5018031;28;20177;-78
2022/06/05 07:29:57;;;;;;;6.10;5.50;;;22.60;99.90;;;;;;5017688;28;20419;-78
2022/06/05 07:32:22;;;;;;;5.40;4.90;;;22.60;99.90;;;;;;5017483;28;20267;-78
2022/06/05 07:34:48;;;;;;;6.90;6.20;;;22.70;99.90;;;;;;5017256;28;20411;-78
2022/06/05 07:37:15;;;;;;;6.43;5.80;;;22.70;99.90;;;;;;5017620;28;20668;-77
2022/06/05 07:39:41;;;;;;;5.97;5.37;;;22.80;99.90;;;;;;5017404;28;20919;-78
2022/06/05 07:42:08;;;;;;;7.10;5.87;;;22.80;99.90;;;;;;5017581;28;20464;-78
2022/06/05 07:44:36;;;;;;;6.50;5.90;;;22.80;99.90;;;;;;5017378;28;20408;-78
2022/06/05 07:47:08;;;;;;;7.13;5.90;;;22.80;99.90;;;;;;5016571;28;20416;-78
2022/06/05 07:49:38;;;;;;;5.90;5.30;;;22.80;99.90;;;;;;5017194;28;20462;-78
2022/06/05 07:54:48;;;;;;;5.90;5.03;;;22.80;99.90;;;;;;5017227;28;20415;-78
2022/06/05 07:57:15;;;;;;;6.20;5.60;;;22.80;99.90;;;;;;5015879;28;20408;-78
2022/06/05 07:59:43;;;;;;;7.90;5.40;;;22.80;99.90;;;;;;5019385;28;20169;-78
2022/06/05 08:02:29;;;;;;;6.97;5.97;;;22.80;99.90;;;;;;5017844;28;20949;-77
2022/06/05 08:04:55;;;;;;;5.97;5.37;;;22.90;99.90;;;;;;5017610;28;20507;-77
2022/06/05 08:07:24;;;;;;;7.20;6.20;;;22.90;99.90;;;;;;5020682;28;20419;-78
2022/06/05 08:09:52;;;;;;;6.77;6.10;;;22.90;99.90;;;;;;5021651;28;20840;-78
2022/06/05 08:12:19;;;;;;;6.73;6.07;;;22.80;99.90;;;;;;5021956;28;20468;-77
2022/06/05 08:14:48;;;;;;;6.87;6.07;;;22.70;99.90;;;;;;5021635;28;20403;-78
2022/06/05 08:17:20;;;;;;;7.10;5.60;;;22.60;99.90;;;;;;5020733;28;20853;-77
2022/06/05 08:19:46;;;;;;;6.57;5.90;;;22.40;99.90;;;;;;5020662;28;20868;-77
2022/06/05 08:22:14;;;;;;;6.57;5.97;;;22.00;99.90;;;;;;5020169;28;20458;-78
2022/06/05 08:24:40;;;;;;;7.20;6.10;;;21.70;99.90;;;;;;5020505;28;20251;-78
2022/06/05 08:27:12;;;;;;;12.50;7.20;;;21.50;99.90;;;;;;5019983;28;20422;-78
2022/06/05 08:29:38;;;;;;;9.57;6.10;;;21.30;99.90;;;;;;5020173;28;20448;-77
2022/06/05 08:32:05;;;;;;;6.90;6.30;;;21.10;99.90;;;;;;5019633;28;20491;-77
2022/06/05 08:34:30;;;;;;;6.97;5.87;;;21.00;99.90;;;;;;5019535;28;20423;-77
2022/06/05 08:42:48;;;;;;;6.80;6.20;;;20.80;99.90;;;;;;5018886;28;20439;-76
2022/06/05 08:45:24;;;;;;;6.37;5.60;;;20.80;99.90;;;;;;5018154;28;20423;-77
2022/06/05 08:47:57;;;;;;;7.27;6.60;;;20.90;99.90;;;;;;5019420;28;20422;-78
2022/06/05 08:50:43;;;;;;;8.40;7.27;;;20.90;99.90;;;;;;5001433;28;20849;-78
2022/06/05 08:53:20;;;;;;;8.10;7.40;;;20.70;99.90;;;;;;5019187;28;20412;-77
2022/06/05 08:55:47;;;;;;;8.43;7.60;;;20.40;99.90;;;;;;5018234;28;20411;-78
2022/06/05 08:58:55;;;;;;;8.57;7.77;;;20.30;99.90;;;;;;5018533;28;20403;-77
2022/06/05 09:01:37;;;;;;;8.07;7.03;;;20.20;99.90;;;;;;4974869;28;20789;-77
2022/06/05 09:04:14;;;;;;;7.70;6.37;;;20.10;99.90;;;;;;5018554;28;20410;-78
2022/06/05 09:06:47;;;;;;;7.93;6.90;;;20.10;99.90;;;;;;5017768;28;20432;-79
2022/06/05 09:09:20;;;;;;;10.90;8.30;;;20.10;99.90;;;;;;5018611;28;20404;-78
2022/06/05 09:11:56;;;;;;;7.40;6.63;;;20.10;99.90;;;;;;5018208;28;20542;-80
2022/06/05 09:14:56;;;;;;;9.30;7.80;;;20.00;99.90;;;;;;5017669;28;20931;-80
2022/06/05 09:17:22;;;;;;;7.80;7.00;;;20.10;99.90;;;;;;5017889;28;20432;-80
2022/06/05 09:19:50;;;;;;;8.70;7.00;;;20.10;99.90;;;;;;5017986;28;20419;-79
2022/06/05 09:22:46;;;;;;;8.43;7.00;;;20.30;99.90;;;;;;5000689;28;20205;-80
2022/06/05 09:25:39;;;;;;;9.27;7.53;;;20.30;99.90;;;;;;5000213;28;20422;-79
2022/06/05 09:28:28;;;;;;;8.60;7.70;;;20.20;99.90;;;;;;5018074;28;20443;-80
2022/06/05 09:31:20;;;;;;;8.87;7.83;;;20.20;99.90;;;;;;5000445;28;20464;-78
2022/06/05 09:33:48;;;;;;;8.47;7.57;;;20.10;99.90;;;;;;5017960;28;20428;-79
2022/06/05 09:36:16;;;;;;;11.13;9.23;;;19.80;99.90;;;;;;5017694;28;20974;-79
2022/06/05 09:39:13;;;;;;;8.60;7.70;;;19.60;99.90;;;;;;5016931;28;20424;-78
2022/06/05 09:41:42;;;;;;;9.53;8.53;;;19.60;99.90;;;;;;5012742;28;20486;-79
2022/06/05 09:44:23;;;;;;;10.20;9.20;;;19.40;99.90;;;;;;5016773;28;20807;-79
2022/06/05 09:46:58;;;;;;;13.23;10.30;;;19.40;99.90;;;;;;5016730;28;20415;-80
2022/06/05 09:49:36;;;;;;;10.10;9.13;;;19.20;99.90;;;;;;5016679;28;20416;-80
2022/06/05 09:52:18;;;;;;;10.67;9.57;;;19.20;99.90;;;;;;5022198;28;20483;-80
2022/06/05 09:54:47;;;;;;;13.90;11.50;;;19.20;99.90;;;;;;5005405;28;20415;-78
2022/06/05 10:00:24;;;;;;;13.20;11.80;;;19.60;99.90;;;;;;5015221;28;20466;-80
2022/06/05 10:02:50;;;;;;;13.53;11.70;;;19.70;99.90;;;;;;5015334;28;20412;-80
2022/06/05 10:05:26;;;;;;;14.17;12.33;;;19.80;99.90;;;;;;5014721;28;20934;-79
2022/06/05 10:07:59;;;;;;;12.27;10.90;;;20.00;99.90;;;;;;5015018;28;20255;-78
2022/06/05 10:10:32;;;;;;;12.67;11.37;;;20.20;99.90;;;;;;5014725;28;20498;-79
2022/06/05 10:13:05;;;;;;;13.37;11.73;;;20.30;99.90;;;;;;5014828;28;20499;-80
2022/06/05 10:15:58;;;;;;;15.67;12.23;;;20.50;99.90;;;;;;5014193;28;20772;-78
2022/06/05 10:19:14;;;;;;;14.33;11.27;;;20.50;99.90;;;;;;5014964;28;20416;-79
2022/06/05 10:21:51;;;;;;;13.47;12.10;;;20.40;99.90;;;;;;5014692;28;20428;-79
2022/06/05 10:24:30;;;;;;;12.23;10.93;;;20.40;99.90;;;;;;5014798;28;20419;-79
2022/06/05 10:26:59;;;;;;;13.13;11.73;;;20.30;99.90;;;;;;5014216;28;20417;-80
2022/06/05 10:29:30;;;;;;;13.40;12.00;;;20.40;99.90;;;;;;5013155;28;20515;-79
2022/06/05 10:32:05;;;;;;;11.40;10.20;;;20.40;99.90;;;;;;5014057;28;20877;-79
2022/06/05 10:34:51;;;;;;;12.10;10.90;;;20.40;99.90;;;;;;5014146;28;20466;-79
2022/06/05 10:37:40;;;;;;;10.23;9.23;;;20.40;99.90;;;;;;5014092;28;20408;-79
2022/06/05 10:40:32;;;;;;;13.60;11.37;;;20.40;99.90;;;;;;5013896;28;20842;-80
2022/06/05 10:43:19;;;;;;;12.03;10.80;;;20.40;99.90;;;;;;4976831;28;20446;-79
2022/06/05 10:46:13;;;;;;;15.70;12.07;;;20.50;99.90;;;;;;5013262;28;20416;-78
2022/06/05 10:49:00;;;;;;;12.57;11.27;;;20.80;99.90;;;;;;5013073;28;20957;-77
2022/06/05 10:51:44;;;;;;;12.17;10.23;;;21.10;99.90;;;;;;4995488;28;20471;-78
2022/06/05 10:54:19;;;;;;;12.43;11.00;;;21.30;99.90;;;;;;5013328;28;20490;-78
2022/06/05 10:57:02;;;;;;;11.63;10.00;;;21.50;99.90;;;;;;5012822;28;20938;-77
2022/06/05 11:00:03;;;;;;;11.60;10.20;;;21.60;99.90;;;;;;5013699;28;20891;-77
2022/06/05 11:02:53;;;;;;;12.10;10.90;;;21.60;99.90;;;;;;4995694;28;20466;-78
2022/06/05 11:05:30;;;;;;;11.70;10.40;;;21.60;99.90;;;;;;5013112;28;20965;-78
2022/06/05 11:08:11;;;;;;;11.07;9.97;;;21.50;99.90;;;;;;5013090;28;20444;-79
2022/06/05 11:13:39;;;;;;;10.37;9.00;;;21.80;99.90;;;;;;5013224;28;20977;-78
2022/06/05 11:16:33;;;;;;;12.67;10.77;;;22.50;99.90;;;;;;4994797;28;20415;-78
2022/06/05 11:18:59;;;;;;;11.83;10.57;;;23.30;99.90;;;;;;5013178;28;20415;-79
2022/06/05 11:21:26;;;;;;;9.63;8.67;;;24.00;99.90;;;;;;5012892;28;20467;-78
2022/06/05 11:23:57;;;;;;;10.93;9.90;;;24.30;99.90;;;;;;5013169;28;20201;-78
2022/06/05 11:26:52;;;;;;;10.27;9.17;;;24.50;99.90;;;;;;5012603;28;20412;-78
2022/06/05 11:29:22;;;;;;;9.40;8.30;;;24.50;99.90;;;;;;5012859;28;20504;-78
2022/06/05 11:32:09;;;;;;;10.37;9.27;;;24.70;99.90;;;;;;5012617;28;20455;-78
2022/06/05 11:34:54;;;;;;;9.20;8.30;;;24.60;99.90;;;;;;5013091;28;20778;-78
2022/06/05 11:37:49;;;;;;;9.50;8.50;;;24.70;99.90;;;;;;4994895;28;20563;-78
2022/06/05 11:40:21;;;;;;;9.03;7.90;;;24.80;99.90;;;;;;5012526;28;20443;-78
2022/06/05 11:43:28;;;;;;;8.07;7.27;;;24.70;99.90;;;;;;4994899;28;20512;-78
2022/06/05 11:46:03;;;;;;;9.17;8.30;;;24.60;99.90;;;;;;5012073;28;20506;-77
2022/06/05 11:48:55;;;;;;;8.83;7.93;;;24.70;99.90;;;;;;5012728;28;20783;-78
2022/06/05 11:51:31;;;;;;;7.53;6.87;;;24.60;99.90;;;;;;5012431;28;20526;-78
2022/06/05 11:54:19;;;;;;;9.00;7.80;;;24.70;99.90;;;;;;5012884;28;20470;-78
2022/06/05 11:57:18;;;;;;;7.97;7.00;;;25.10;99.90;;;;;;5012113;28;20407;-78
2022/06/05 12:00:01;;;;;;;10.67;7.80;;;25.40;99.90;;;;;;4979177;28;20953;-78
2022/06/05 12:02:48;;;;;;;7.70;6.90;;;25.40;99.90;;;;;;4995027;28;20501;-80
2022/06/05 12:05:20;;;;;;;8.23;7.43;;;25.30;99.90;;;;;;4994800;28;20443;-78
2022/06/05 12:07:49;;;;;;;8.77;7.87;;;25.10;99.90;;;;;;5012235;28;20821;-78
2022/06/05 12:10:28;;;;;;;9.00;8.10;;;25.20;99.90;;;;;;5012408;28;20408;-79
2022/06/05 12:13:46;;;;;;;8.20;7.50;;;25.40;99.90;;;;;;5012305;28;20459;-77
2022/06/05 12:16:20;;;;;;;7.23;6.63;;;25.50;99.90;;;;;;4988952;28;20423;-79
2022/06/05 12:18:59;;;;;;;8.37;7.57;;;25.50;99.90;;;;;;5012552;28;20412;-79
2022/06/05 12:21:34;;;;;;;7.90;7.10;;;25.30;99.90;;;;;;5012251;28;20451;-79
2022/06/05 12:24:11;;;;;;;8.07;7.37;;;25.20;99.90;;;;;;5012281;28;20422;-79
2022/06/05 12:26:45;;;;;;;9.20;7.07;;;25.40;99.90;;;;;;5011861;28;20419;-78
2022/06/05 12:29:19;;;;;;;8.87;7.70;;;25.50;99.90;;;;;;5012310;28;20413;-78
2022/06/05 12:32:00;;;;;;;7.23;6.53;;;25.40;99.90;;;;;;5012135;28;20880;-78
2022/06/05 12:34:33;;;;;;;6.83;6.07;;;25.30;99.90;;;;;;5012373;28;20420;-79
2022/06/05 12:37:27;;;;;;;7.80;7.20;;;25.20;99.90;;;;;;5011724;28;20416;-78
2022/06/05 12:39:55;;;;;;;7.40;6.70;;;25.00;99.90;;;;;;4986572;28;20420;-78
2022/06/05 12:42:25;;;;;;;7.50;6.80;;;24.90;99.90;;;;;;5012038;28;20463;-78
2022/06/05 12:44:59;;;;;;;6.97;6.27;;;24.90;99.90;;;;;;5011978;28;20781;-78
2022/06/05 12:47:51;;;;;;;8.07;6.47;;;24.80;99.90;;;;;;4994078;28;20435;-78
2022/06/05 12:50:19;;;;;;;7.10;6.50;;;24.80;99.90;;;;;;5011984;28;20423;-79
2022/06/05 12:53:04;;;;;;;7.43;6.67;;;24.60;99.90;;;;;;5012649;28;20977;-79
2022/06/05 12:55:32;;;;;;;6.80;6.20;;;24.60;99.90;;;;;;5015310;28;20462;-77
2022/06/05 12:58:10;;;;;;;7.87;7.07;;;24.40;99.90;;;;;;4997685;28;20417;-78
2022/06/05 13:00:47;;;;;;;8.77;7.00;;;24.20;99.90;;;;;;5016048;28;20486;-79
2022/06/05 13:03:46;;;;;;;8.73;7.83;;;24.00;99.90;;;;;;4997730;28;20427;-77
2022/06/05 13:06:37;;;;;;;8.63;7.80;;;23.90;99.90;;;;;;5018142;28;20410;-79
2022/06/05 13:09:15;;;;;;;9.47;8.57;;;23.80;99.90;;;;;;5019357;28;20415;-79
2022/06/05 13:11:47;;;;;;;8.43;7.57;;;23.30;99.90;;;;;;5019160;28;20470;-80
2022/06/05 13:14:15;;;;;;;8.40;7.50;;;23.00;99.90;;;;;;5018698;28;20506;-79
2022/06/05 13:16:51;;;;;;;9.73;8.73;;;22.60;99.90;;;;;;5018086;28;20443;-80
2022/06/05 13:19:43;;;;;;;8.73;7.83;;;22.40;99.90;;;;;;5000647;28;20423;-79
2022/06/05 13:22:36;;;;;;;11.23;7.97;;;22.00;99.90;;;;;;5018326;28;20436;-79
2022/06/05 13:25:32;;;;;;;8.90;8.00;;;21.70;99.90;;;;;;5018496;28;20418;-80
2022/06/05 13:28:36;;;;;;;9.17;8.27;;;21.70;99.90;;;;;;5000207;28;20428;-80
2022/06/05 13:31:26;;;;;;;23.00;18.57;;;21.60;99.90;;;;;;4938048;29;20534;-80
2022/06/05 13:34:16;;;;;;;22.73;20.30;;;21.60;99.90;;;;;;4998159;28;20420;-79
2022/06/05 13:36:57;;;;;;;22.90;18.50;;;21.50;99.90;;;;;;4999466;28;20423;-78
2022/06/05 13:39:46;;;;;;;9.70;8.77;;;21.40;99.90;;;;;;5016099;28;20422;-77